Airfield :
LOGIN :

Register | Disclaimer

   EN    FR    IT 

 










Legend :    VFR   Marginal VFR   IFR   Intensive IFR   Very Intensive IFR
Visi :
Ceiling :
>= 8 km
>= 3000ft
5 to 8 km
1000 to 3000 ft
1500m to 5 km
500 to 1000 ft
800 to 1500m
200 to 500 ft
< 800m
< 200 ft
Symbols :   Thunderstorms  Fog  Heavy snow  Heavy precipitations  Wind > 20 kt
SIGMETs :     Misc.  Thunderstorms  Icing  Turbulence  Mountain Waves  Volcanic Ashes






- Airport Elevation : 296 ft
- IATA code : GKE


ETNG - Geilenkirchen

CURRENT METAR :
  • 280750Z 22004KT 9999 BKN013 09/07 Q1010 TEMPO -DZ

EXPIRED METARs :
  • 280650Z 19002KT 9999 FEW014 BKN017 08/06 Q1010 NOSIG
  • 280550Z 19004KT 9999 BKN020 08/06 Q1009
  • 280450Z 18002KT 9999 BKN046 08/06 Q1010

TAF TAF ETNG
Valid from the 28 at 06:00 until the 28 at 21:00 UTC


280500Z 2806/2821 20007KT 9999 -RA BKN020
PROB30
TEMPO 2806/2813 5000 DZRA BKN012
BECMG 2812/2814 NSW



MET'MAP, your aeronautical weather chart ! - Copyright ORBIFLY December 2007 - Disclaimer

ORBIFLY MET'MAP TEAM :

Programming & Development : Alexandra Zaïnal
Original concept : Baudouin d'Aumeries
Technical & hardware support : Manuel Goepfert
Assistance : Marc-Olivier Méhu




SOURCES & CREDITS :

   NOAA